Time;durP1;ratioP1;P1;durP2;ratioP2;P2;SDS_P1;SDS_P2;PMS_P1;PMS_P2;Temp;Humidity;BMP_temperature;BMP_pressure;BME280_temperature;BME280_humidity;BME280_pressure;Samples;Min_cycle;Max_cycle;Signal;HPM_P1;HPM_P2
2023/12/14 00:02:47;;;;;;;2.25;1.20;;;;;;;;;;5049782;28;20102;-64
2023/12/14 00:06:28;;;;;;;3.60;1.30;;;;;;;;;;5045811;28;20454;-65
2023/12/14 00:10:08;;;;;;;1.92;1.10;;;;;;;;;;5045557;28;20631;-65
2023/12/14 00:13:48;;;;;;;7.65;1.33;;;;;;;;;;5043324;28;20112;-64
2023/12/14 00:17:29;;;;;;;2.75;1.50;;;;;;;;;;5046253;28;20049;-64
2023/12/14 00:21:09;;;;;;;4.90;1.30;;;;;;;;;;5041526;28;20049;-65
2023/12/14 00:24:52;;;;;;;2.90;1.40;;;;;;;;;;5074202;28;20055;-64
2023/12/14 00:28:34;;;;;;;3.90;1.58;;;;;;;;;;5083492;28;20044;-66
2023/12/14 00:32:15;;;;;;;3.60;1.30;;;;;;;;;;5083751;28;20052;-64
2023/12/14 00:35:55;;;;;;;4.75;1.25;;;;;;;;;;5085115;28;20927;-63
2023/12/14 00:39:36;;;;;;;3.03;1.10;;;;;;;;;;5083431;28;20118;-63
2023/12/14 00:43:16;;;;;;;2.05;1.10;;;;;;;;;;5087247;28;20048;-63
2023/12/14 00:46:58;;;;;;;3.55;1.10;;;;;;;;;;5090109;28;20064;-62
2023/12/14 00:50:38;;;;;;;3.15;1.30;;;;;;;;;;5088389;28;20082;-64
2023/12/14 00:54:19;;;;;;;1.30;0.80;;;;;;;;;;5082541;28;20044;-63
2023/12/14 00:58:00;;;;;;;1.67;0.70;;;;;;;;;;5082342;28;20049;-65
2023/12/14 01:01:40;;;;;;;2.15;1.00;;;;;;;;;;5091631;28;20047;-63
2023/12/14 01:05:21;;;;;;;2.00;0.90;;;;;;;;;;5086690;28;20496;-64
2023/12/14 01:09:02;;;;;;;2.35;0.90;;;;;;;;;;5087628;28;20048;-64
2023/12/14 01:12:42;;;;;;;2.45;0.90;;;;;;;;;;5092854;28;20132;-63
2023/12/14 01:16:23;;;;;;;2.15;1.40;;;;;;;;;;5086404;28;20101;-64
2023/12/14 01:20:03;;;;;;;1.55;0.90;;;;;;;;;;5086860;28;20135;-66
2023/12/14 01:23:44;;;;;;;4.40;1.15;;;;;;;;;;5080858;28;20531;-63
2023/12/14 01:27:24;;;;;;;1.52;0.80;;;;;;;;;;5083920;28;20346;-67
2023/12/14 01:31:04;;;;;;;2.63;1.00;;;;;;;;;;5096817;28;20100;-63
2023/12/14 01:34:45;;;;;;;2.35;1.40;;;;;;;;;;5082770;28;20127;-62
2023/12/14 01:38:28;;;;;;;1.40;0.57;;;;;;;;;;5078733;27;20379;-63
2023/12/14 01:42:08;;;;;;;1.75;0.60;;;;;;;;;;5080991;28;20100;-63
2023/12/14 01:45:50;;;;;;;2.50;0.70;;;;;;;;;;5081323;28;20190;-69
2023/12/14 01:49:30;;;;;;;0.90;0.50;;;;;;;;;;5086492;28;20474;-63
2023/12/14 01:53:11;;;;;;;0.80;0.50;;;;;;;;;;5074862;28;20410;-64
2023/12/14 01:56:51;;;;;;;0.88;0.50;;;;;;;;;;5077268;28;20455;-63
2023/12/14 02:00:31;;;;;;;1.30;0.60;;;;;;;;;;5080289;28;20035;-63
2023/12/14 02:04:12;;;;;;;1.75;0.57;;;;;;;;;;5082426;28;20037;-62
2023/12/14 02:07:52;;;;;;;2.05;0.90;;;;;;;;;;5086739;28;20051;-63
2023/12/14 02:11:32;;;;;;;1.67;0.60;;;;;;;;;;5082636;28;20043;-64
2023/12/14 02:15:13;;;;;;;1.27;0.50;;;;;;;;;;5080098;28;20477;-64
2023/12/14 02:18:55;;;;;;;1.90;0.65;;;;;;;;;;5086122;28;20060;-64
2023/12/14 02:22:35;;;;;;;2.28;0.80;;;;;;;;;;5084408;28;20044;-65
2023/12/14 02:26:15;;;;;;;2.17;0.50;;;;;;;;;;5075349;28;20063;-66
2023/12/14 02:29:56;;;;;;;2.10;0.60;;;;;;;;;;5075573;28;20106;-63
2023/12/14 02:33:36;;;;;;;3.63;0.60;;;;;;;;;;5080402;28;20040;-63
2023/12/14 02:37:17;;;;;;;0.88;0.60;;;;;;;;;;5084352;28;20083;-64
2023/12/14 02:40:57;;;;;;;1.42;0.73;;;;;;;;;;5079041;28;20454;-63
2023/12/14 02:44:37;;;;;;;1.63;0.65;;;;;;;;;;5078182;28;20047;-63
2023/12/14 02:48:18;;;;;;;3.40;0.60;;;;;;;;;;5080034;28;20198;-64
2023/12/14 02:51:59;;;;;;;1.85;0.73;;;;;;;;;;5079173;28;20040;-65
2023/12/14 02:55:40;;;;;;;1.15;0.50;;;;;;;;;;5078681;28;20040;-63
2023/12/14 02:59:20;;;;;;;3.72;0.68;;;;;;;;;;5080051;28;20054;-63
2023/12/14 03:03:00;;;;;;;1.00;0.68;;;;;;;;;;5079335;28;20524;-65
2023/12/14 03:06:41;;;;;;;1.95;0.77;;;;;;;;;;5079801;28;20048;-64
2023/12/14 03:10:22;;;;;;;2.03;0.45;;;;;;;;;;5080614;27;20043;-64
2023/12/14 03:14:02;;;;;;;2.08;0.70;;;;;;;;;;5081784;28;20036;-63
2023/12/14 03:17:43;;;;;;;2.10;0.65;;;;;;;;;;5079715;28;20120;-64
2023/12/14 03:21:23;;;;;;;0.85;0.55;;;;;;;;;;5083356;28;20132;-65
2023/12/14 03:25:04;;;;;;;1.35;0.70;;;;;;;;;;5073860;28;20142;-64
2023/12/14 03:28:44;;;;;;;2.17;0.60;;;;;;;;;;5080701;28;20047;-65
2023/12/14 03:32:24;;;;;;;0.60;0.50;;;;;;;;;;5083062;28;20051;-64
2023/12/14 03:36:05;;;;;;;0.50;0.50;;;;;;;;;;5078024;28;20279;-64
2023/12/14 03:39:46;;;;;;;2.60;0.50;;;;;;;;;;5079263;28;20055;-65
2023/12/14 03:43:27;;;;;;;1.25;0.45;;;;;;;;;;5085418;28;20044;-63
2023/12/14 03:47:07;;;;;;;2.88;0.50;;;;;;;;;;5085718;28;20044;-64
2023/12/14 03:50:48;;;;;;;2.28;0.40;;;;;;;;;;5078421;28;20449;-64
2023/12/14 03:54:29;;;;;;;1.00;0.47;;;;;;;;;;5083230;28;20127;-65
2023/12/14 03:58:09;;;;;;;2.42;0.77;;;;;;;;;;5086564;28;20392;-64
2023/12/14 04:01:57;;;;;;;0.90;0.43;;;;;;;;;;5086817;28;20046;-64
2023/12/14 04:05:38;;;;;;;3.08;0.55;;;;;;;;;;5079024;28;20044;-63
2023/12/14 04:09:18;;;;;;;1.35;0.50;;;;;;;;;;5085704;28;20335;-68
2023/12/14 04:12:59;;;;;;;2.33;0.55;;;;;;;;;;5085541;28;20391;-65
2023/12/14 04:16:40;;;;;;;2.83;0.50;;;;;;;;;;5087136;28;20039;-63
2023/12/14 04:20:21;;;;;;;2.10;0.70;;;;;;;;;;5086908;28;20268;-63
2023/12/14 04:24:01;;;;;;;0.88;0.63;;;;;;;;;;5083818;28;20067;-64
2023/12/14 04:27:41;;;;;;;2.28;0.68;;;;;;;;;;5083842;28;20100;-64
2023/12/14 04:31:22;;;;;;;1.23;0.63;;;;;;;;;;5085730;28;20383;-64
2023/12/14 04:35:02;;;;;;;2.20;0.60;;;;;;;;;;5079945;28;20921;-63
2023/12/14 04:38:45;;;;;;;2.60;0.80;;;;;;;;;;5085652;28;20127;-65
2023/12/14 04:42:23;;;;;;;2.15;0.70;;;;;;;;;;5088887;28;20123;-64
2023/12/14 04:46:03;;;;;;;1.67;0.90;;;;;;;;;;5088155;28;20450;-63
2023/12/14 04:49:44;;;;;;;1.65;0.75;;;;;;;;;;5085647;28;20074;-62
2023/12/14 04:53:24;;;;;;;2.03;0.80;;;;;;;;;;5083149;28;20162;-63
2023/12/14 04:57:07;;;;;;;1.15;0.70;;;;;;;;;;5086770;28;20500;-62
2023/12/14 05:00:48;;;;;;;1.67;0.60;;;;;;;;;;5079806;28;20036;-63
2023/12/14 05:04:28;;;;;;;3.60;0.73;;;;;;;;;;5087704;28;20492;-64
2023/12/14 05:08:09;;;;;;;1.15;0.60;;;;;;;;;;5086630;28;20380;-62
2023/12/14 05:11:50;;;;;;;4.32;0.80;;;;;;;;;;5084714;28;20044;-65
2023/12/14 05:15:32;;;;;;;1.27;0.77;;;;;;;;;;5086062;28;20051;-64
2023/12/14 05:19:12;;;;;;;1.35;0.60;;;;;;;;;;5088238;28;20391;-63
2023/12/14 05:22:52;;;;;;;1.85;0.60;;;;;;;;;;5073937;28;20499;-66
2023/12/14 05:26:34;;;;;;;1.80;0.80;;;;;;;;;;5083509;27;20060;-64
2023/12/14 05:30:15;;;;;;;6.13;0.70;;;;;;;;;;5088168;28;20452;-64
2023/12/14 05:33:58;;;;;;;3.55;0.60;;;;;;;;;;5086261;28;20044;-63
2023/12/14 05:37:38;;;;;;;6.18;0.65;;;;;;;;;;5088540;27;20143;-64
2023/12/14 05:41:18;;;;;;;4.25;1.20;;;;;;;;;;5082259;28;20044;-64
2023/12/14 05:44:59;;;;;;;4.25;0.77;;;;;;;;;;5088468;28;20190;-62
2023/12/14 05:48:39;;;;;;;4.35;0.50;;;;;;;;;;5086409;28;20508;-63
2023/12/14 05:52:19;;;;;;;7.43;0.50;;;;;;;;;;5081124;28;20040;-65
2023/12/14 05:56:00;;;;;;;0.85;0.40;;;;;;;;;;5074561;28;20106;-62
2023/12/14 05:59:40;;;;;;;1.17;0.40;;;;;;;;;;5092094;28;20491;-65
2023/12/14 06:03:20;;;;;;;5.75;0.80;;;;;;;;;;5088450;28;20166;-63
2023/12/14 06:07:01;;;;;;;1.73;0.50;;;;;;;;;;5085893;28;20075;-64
2023/12/14 06:10:42;;;;;;;9.20;0.75;;;;;;;;;;5080408;28;20299;-65
2023/12/14 06:14:23;;;;;;;3.08;0.60;;;;;;;;;;5084665;27;20068;-63
2023/12/14 06:18:04;;;;;;;3.97;0.40;;;;;;;;;;5085636;28;20051;-64
2023/12/14 06:21:43;;;;;;;3.35;0.40;;;;;;;;;;5081163;28;20040;-65
2023/12/14 06:25:24;;;;;;;2.38;0.40;;;;;;;;;;5084108;28;20533;-63
2023/12/14 06:29:05;;;;;;;5.15;0.70;;;;;;;;;;5090244;28;20098;-66
2023/12/14 06:32:45;;;;;;;6.30;0.80;;;;;;;;;;5094701;27;20039;-64
2023/12/14 06:36:29;;;;;;;4.00;0.60;;;;;;;;;;5080569;28;20055;-66
2023/12/14 06:40:07;;;;;;;1.88;0.50;;;;;;;;;;5088017;28;20323;-65
2023/12/14 06:43:47;;;;;;;1.95;0.60;;;;;;;;;;5088078;28;20055;-63
2023/12/14 06:47:27;;;;;;;3.05;0.50;;;;;;;;;;5089506;28;20048;-64
2023/12/14 06:51:08;;;;;;;5.00;0.70;;;;;;;;;;5083314;28;20140;-67
2023/12/14 06:54:49;;;;;;;0.95;0.40;;;;;;;;;;5085298;27;20078;-64
2023/12/14 06:58:30;;;;;;;4.97;1.08;;;;;;;;;;5083503;28;20048;-64
2023/12/14 07:02:11;;;;;;;3.40;0.90;;;;;;;;;;5079781;28;20128;-66
2023/12/14 07:05:52;;;;;;;5.75;0.73;;;;;;;;;;5079479;28;20180;-66
2023/12/14 07:09:32;;;;;;;3.75;0.68;;;;;;;;;;5076178;28;20119;-66
2023/12/14 07:13:15;;;;;;;6.47;0.93;;;;;;;;;;5078823;28;20058;-66
2023/12/14 07:16:55;;;;;;;5.10;0.93;;;;;;;;;;5079037;28;20047;-67
2023/12/14 07:20:36;;;;;;;4.53;0.82;;;;;;;;;;5087291;28;20127;-66
2023/12/14 07:24:17;;;;;;;2.95;0.68;;;;;;;;;;5085276;28;20414;-67
2023/12/14 07:27:57;;;;;;;1.60;0.60;;;;;;;;;;5093166;28;20044;-67
2023/12/14 07:31:37;;;;;;;2.20;0.60;;;;;;;;;;5085195;28;20220;-65
2023/12/14 07:35:18;;;;;;;2.25;0.52;;;;;;;;;;5086348;28;20467;-66
2023/12/14 07:39:00;;;;;;;5.15;0.93;;;;;;;;;;5097168;28;20051;-66
2023/12/14 07:42:38;;;;;;;6.60;1.25;;;;;;;;;;5074177;28;20047;-63
2023/12/14 07:46:19;;;;;;;4.07;1.00;;;;;;;;;;5073453;28;20032;-62
2023/12/14 07:49:59;;;;;;;7.25;1.35;;;;;;;;;;5080069;28;20036;-62
2023/12/14 07:53:42;;;;;;;10.90;1.13;;;;;;;;;;5095576;28;20071;-64
2023/12/14 07:57:21;;;;;;;2.25;0.93;;;;;;;;;;5069087;28;20159;-63
2023/12/14 08:01:03;;;;;;;3.00;0.95;;;;;;;;;;5094058;28;20036;-63
2023/12/14 08:04:43;;;;;;;3.75;1.20;;;;;;;;;;5084245;28;20143;-65
2023/12/14 08:08:24;;;;;;;9.43;1.00;;;;;;;;;;5086522;28;20646;-66
2023/12/14 08:12:04;;;;;;;11.75;1.77;;;;;;;;;;5083882;28;20150;-63
2023/12/14 08:15:45;;;;;;;5.78;0.98;;;;;;;;;;5086663;28;20577;-67
2023/12/14 08:19:26;;;;;;;2.65;0.60;;;;;;;;;;5085784;28;20051;-64
2023/12/14 08:23:06;;;;;;;7.35;1.20;;;;;;;;;;5093150;27;20064;-64
2023/12/14 08:26:47;;;;;;;10.70;0.70;;;;;;;;;;5082078;28;20056;-63
2023/12/14 08:30:28;;;;;;;14.57;1.75;;;;;;;;;;5082994;28;20248;-63
2023/12/14 08:34:09;;;;;;;1.17;0.50;;;;;;;;;;5090322;28;20400;-63
2023/12/14 08:37:49;;;;;;;4.85;0.52;;;;;;;;;;5091717;28;20127;-63
2023/12/14 08:41:29;;;;;;;1.33;0.60;;;;;;;;;;5089049;28;20040;-64
2023/12/14 08:45:11;;;;;;;7.07;1.20;;;;;;;;;;5093972;28;20044;-68
2023/12/14 08:48:50;;;;;;;3.55;0.80;;;;;;;;;;5101385;28;20066;-65
2023/12/14 08:52:30;;;;;;;2.55;0.90;;;;;;;;;;5076300;28;20186;-62
2023/12/14 08:56:11;;;;;;;10.90;1.60;;;;;;;;;;5089583;28;20052;-63
2023/12/14 08:59:52;;;;;;;8.82;1.10;;;;;;;;;;5086091;28;20089;-62
2023/12/14 09:03:32;;;;;;;1.25;0.68;;;;;;;;;;5079293;28;20044;-66
2023/12/14 09:07:12;;;;;;;2.83;0.40;;;;;;;;;;5094103;28;20275;-64
2023/12/14 09:10:53;;;;;;;2.95;0.40;;;;;;;;;;5095135;28;20059;-67
2023/12/14 09:14:33;;;;;;;5.10;0.90;;;;;;;;;;5090140;28;20325;-62
2023/12/14 09:18:15;;;;;;;8.77;0.90;;;;;;;;;;5085074;28;20044;-61
2023/12/14 09:21:55;;;;;;;4.45;0.52;;;;;;;;;;5084740;28;20072;-62
2023/12/14 09:25:35;;;;;;;4.00;0.52;;;;;;;;;;5099623;28;20046;-62
2023/12/14 09:29:16;;;;;;;6.55;1.55;;;;;;;;;;5078593;28;20052;-64
2023/12/14 09:32:56;;;;;;;2.53;0.68;;;;;;;;;;5089539;28;20070;-63
2023/12/14 09:36:37;;;;;;;4.47;0.70;;;;;;;;;;5086457;28;20036;-63
2023/12/14 09:40:19;;;;;;;4.28;0.60;;;;;;;;;;5085492;27;20392;-64
2023/12/14 09:43:59;;;;;;;3.95;0.82;;;;;;;;;;5086144;28;20039;-65
2023/12/14 09:47:40;;;;;;;5.43;0.70;;;;;;;;;;5084303;28;20237;-66
2023/12/14 09:51:23;;;;;;;2.78;0.82;;;;;;;;;;5086586;28;20051;-65
2023/12/14 09:55:03;;;;;;;3.22;0.75;;;;;;;;;;5089792;28;20107;-63
2023/12/14 09:58:43;;;;;;;2.78;0.60;;;;;;;;;;5089982;27;20046;-67
2023/12/14 10:02:29;;;;;;;4.82;0.70;;;;;;;;;;5087349;28;20052;-68
2023/12/14 10:06:10;;;;;;;2.97;0.90;;;;;;;;;;5083760;28;20424;-68
2023/12/14 10:09:53;;;;;;;4.25;0.93;;;;;;;;;;5087891;28;20039;-67
2023/12/14 10:13:32;;;;;;;3.33;0.70;;;;;;;;;;5089262;28;20113;-67
2023/12/14 10:17:13;;;;;;;8.13;0.93;;;;;;;;;;5084956;28;20056;-67
2023/12/14 10:20:53;;;;;;;6.38;0.50;;;;;;;;;;5096240;28;20619;-70
2023/12/14 10:24:37;;;;;;;3.85;0.70;;;;;;;;;;5073531;28;20050;-66
2023/12/14 10:28:18;;;;;;;6.93;0.60;;;;;;;;;;5095647;28;20525;-68
2023/12/14 10:31:59;;;;;;;5.07;0.73;;;;;;;;;;5076781;28;20064;-68
2023/12/14 10:35:41;;;;;;;2.88;0.68;;;;;;;;;;5088742;28;20119;-70
2023/12/14 10:39:19;;;;;;;3.95;0.63;;;;;;;;;;5085834;28;20465;-67
2023/12/14 10:43:00;;;;;;;4.35;0.52;;;;;;;;;;5084130;28;20087;-65
2023/12/14 10:46:40;;;;;;;3.80;0.80;;;;;;;;;;5086983;28;20032;-68
2023/12/14 10:50:20;;;;;;;5.80;0.70;;;;;;;;;;5086598;28;20048;-68
2023/12/14 10:54:00;;;;;;;3.10;0.73;;;;;;;;;;5082082;28;20100;-66
2023/12/14 10:57:42;;;;;;;6.72;0.90;;;;;;;;;;5077066;28;20105;-68
2023/12/14 11:01:26;;;;;;;14.35;0.70;;;;;;;;;;5079612;28;20067;-71
2023/12/14 11:05:16;;;;;;;2.35;1.10;;;;;;;;;;5089400;28;20119;-68
2023/12/14 11:08:55;;;;;;;15.70;0.90;;;;;;;;;;5085762;28;20102;-69
2023/12/14 11:12:37;;;;;;;9.32;0.75;;;;;;;;;;5095611;28;20109;-73
2023/12/14 11:16:20;;;;;;;14.70;0.80;;;;;;;;;;5089581;27;20040;-67
2023/12/14 11:20:03;;;;;;;3.58;0.80;;;;;;;;;;5081276;28;20111;-67
2023/12/14 11:23:49;;;;;;;4.35;1.05;;;;;;;;;;5084605;28;20372;-69
2023/12/14 11:27:29;;;;;;;11.55;0.70;;;;;;;;;;5079154;28;20056;-69
2023/12/14 11:31:10;;;;;;;11.30;1.17;;;;;;;;;;5077990;27;20055;-68
2023/12/14 11:34:50;;;;;;;5.82;0.90;;;;;;;;;;5082501;27;20065;-68
2023/12/14 11:38:31;;;;;;;2.13;0.75;;;;;;;;;;5085697;28;20048;-66
2023/12/14 11:42:19;;;;;;;6.30;1.20;;;;;;;;;;5087306;28;20070;-68
2023/12/14 11:46:01;;;;;;;5.93;0.75;;;;;;;;;;5082098;28;20048;-66
2023/12/14 11:49:41;;;;;;;7.60;0.68;;;;;;;;;;5084687;28;20041;-64
2023/12/14 11:53:21;;;;;;;2.83;0.60;;;;;;;;;;5085636;28;20130;-69
2023/12/14 11:57:09;;;;;;;7.38;0.85;;;;;;;;;;5080813;28;20535;-66
2023/12/14 12:00:49;;;;;;;4.57;0.40;;;;;;;;;;5078129;28;20048;-67
2023/12/14 12:04:30;;;;;;;4.93;0.60;;;;;;;;;;5084649;28;20124;-72
2023/12/14 12:08:10;;;;;;;4.75;0.70;;;;;;;;;;5084639;28;20199;-66
2023/12/14 12:11:53;;;;;;;4.97;0.73;;;;;;;;;;5084004;28;20053;-66
2023/12/14 12:15:31;;;;;;;2.88;0.70;;;;;;;;;;5083868;28;20454;-68
2023/12/14 12:19:11;;;;;;;3.95;0.88;;;;;;;;;;5082404;28;20127;-70
2023/12/14 12:22:51;;;;;;;1.52;0.50;;;;;;;;;;5084551;28;20069;-67
2023/12/14 12:26:32;;;;;;;1.20;0.70;;;;;;;;;;5071525;28;20083;-68
2023/12/14 12:30:12;;;;;;;2.30;0.70;;;;;;;;;;5083974;28;20075;-68
2023/12/14 12:33:52;;;;;;;2.22;0.75;;;;;;;;;;5088177;28;20071;-68
2023/12/14 12:37:32;;;;;;;3.75;0.77;;;;;;;;;;5081202;28;20052;-69
2023/12/14 12:41:13;;;;;;;4.68;0.60;;;;;;;;;;5085490;28;20344;-70
2023/12/14 12:44:53;;;;;;;10.02;1.65;;;;;;;;;;5077681;28;20048;-67
2023/12/14 12:48:34;;;;;;;4.53;0.98;;;;;;;;;;5083201;28;20503;-64
2023/12/14 12:52:15;;;;;;;0.93;0.60;;;;;;;;;;5094553;28;20085;-69
2023/12/14 12:55:55;;;;;;;4.25;0.85;;;;;;;;;;5084092;28;20051;-67
2023/12/14 12:59:35;;;;;;;2.25;0.80;;;;;;;;;;5083397;28;20051;-70
2023/12/14 13:03:16;;;;;;;2.67;1.20;;;;;;;;;;5099812;28;20062;-70
2023/12/14 13:06:56;;;;;;;7.07;0.82;;;;;;;;;;5098641;28;20047;-70
2023/12/14 13:10:39;;;;;;;9.50;1.20;;;;;;;;;;5080004;28;20053;-68
2023/12/14 13:14:20;;;;;;;2.05;0.80;;;;;;;;;;5086279;28;20052;-69
2023/12/14 13:18:00;;;;;;;2.85;0.82;;;;;;;;;;5092100;28;20519;-68
2023/12/14 13:21:40;;;;;;;6.50;1.20;;;;;;;;;;5091116;28;20054;-71
2023/12/14 13:25:25;;;;;;;4.32;1.10;;;;;;;;;;5082385;28;20248;-68
2023/12/14 13:29:03;;;;;;;3.17;1.20;;;;;;;;;;5084068;28;20052;-75
2023/12/14 13:32:43;;;;;;;2.45;0.90;;;;;;;;;;5106538;28;20406;-71
2023/12/14 13:36:23;;;;;;;2.35;1.13;;;;;;;;;;5086713;28;20136;-69
2023/12/14 13:40:03;;;;;;;3.45;1.13;;;;;;;;;;5092411;28;20408;-70
2023/12/14 13:43:46;;;;;;;4.80;1.60;;;;;;;;;;5089668;28;20055;-70
2023/12/14 13:47:24;;;;;;;5.95;1.83;;;;;;;;;;5100837;28;20400;-70
2023/12/14 13:51:08;;;;;;;5.65;1.30;;;;;;;;;;5092936;28;20128;-69
2023/12/14 13:54:46;;;;;;;1.27;0.80;;;;;;;;;;5087154;28;20040;-68
2023/12/14 13:58:27;;;;;;;6.32;1.83;;;;;;;;;;5082883;28;20123;-68
2023/12/14 14:02:07;;;;;;;2.88;1.00;;;;;;;;;;5082776;28;20460;-69
2023/12/14 14:05:48;;;;;;;6.40;1.35;;;;;;;;;;5084747;28;20079;-71
2023/12/14 14:09:28;;;;;;;5.30;1.20;;;;;;;;;;5080554;28;20051;-71
2023/12/14 14:13:08;;;;;;;4.45;1.50;;;;;;;;;;5083324;28;20052;-72
2023/12/14 14:16:51;;;;;;;4.95;1.05;;;;;;;;;;5075700;28;20371;-69
2023/12/14 14:20:31;;;;;;;9.32;1.42;;;;;;;;;;5080802;28;20056;-70
2023/12/14 14:24:11;;;;;;;4.00;1.60;;;;;;;;;;5085266;28;20496;-69
2023/12/14 14:27:52;;;;;;;6.18;1.25;;;;;;;;;;5086018;28;20054;-69
2023/12/14 14:31:32;;;;;;;2.65;1.00;;;;;;;;;;5082809;28;20123;-69
2023/12/14 14:35:12;;;;;;;6.28;1.27;;;;;;;;;;5080069;28;20126;-71
2023/12/14 14:38:54;;;;;;;5.07;1.63;;;;;;;;;;5080988;28;20070;-71
2023/12/14 14:42:33;;;;;;;8.68;1.83;;;;;;;;;;5086438;28;20496;-71
2023/12/14 14:46:15;;;;;;;6.60;2.50;;;;;;;;;;5083970;28;20076;-69
2023/12/14 14:50:02;;;;;;;7.20;2.33;;;;;;;;;;5082129;28;20047;-71
2023/12/14 14:53:37;;;;;;;3.75;1.17;;;;;;;;;;5080923;28;20040;-70
2023/12/14 14:57:16;;;;;;;2.78;0.88;;;;;;;;;;5077347;28;20046;-70
2023/12/14 15:00:57;;;;;;;3.63;1.00;;;;;;;;;;5080853;28;20373;-70
2023/12/14 15:04:38;;;;;;;1.55;0.60;;;;;;;;;;5088875;28;20044;-72
2023/12/14 15:08:19;;;;;;;1.52;0.70;;;;;;;;;;5085339;28;20038;-71
2023/12/14 15:11:59;;;;;;;1.48;0.70;;;;;;;;;;5083458;28;20044;-70
2023/12/14 15:15:39;;;;;;;2.85;0.70;;;;;;;;;;5078111;28;20470;-70
2023/12/14 15:19:21;;;;;;;2.22;0.90;;;;;;;;;;5085152;28;20049;-71
2023/12/14 15:23:05;;;;;;;3.03;0.80;;;;;;;;;;5099677;28;20504;-67
2023/12/14 15:26:41;;;;;;;2.78;0.75;;;;;;;;;;5078391;28;20090;-72
2023/12/14 15:30:22;;;;;;;7.28;3.42;;;;;;;;;;5085569;28;20048;-70
2023/12/14 15:34:02;;;;;;;5.72;1.38;;;;;;;;;;5081744;28;20048;-70
2023/12/14 15:37:42;;;;;;;2.20;0.63;;;;;;;;;;5082970;28;20425;-68
2023/12/14 15:41:23;;;;;;;5.53;0.70;;;;;;;;;;5083621;28;20370;-71
2023/12/14 15:45:04;;;;;;;6.75;0.95;;;;;;;;;;5087018;28;20044;-69
2023/12/14 15:48:44;;;;;;;5.72;0.90;;;;;;;;;;5083505;28;20535;-71
2023/12/14 15:52:31;;;;;;;2.53;0.80;;;;;;;;;;5071824;28;20542;-73
2023/12/14 15:55:52;;;;;;;;;;;;;;;;;;5074192;28;20040;-74
2023/12/14 15:59:37;;;;;;;6.15;1.00;;;;;;;;;;5084875;28;19919;-73
2023/12/14 16:03:17;;;;;;;1.58;0.55;;;;;;;;;;5085101;28;20044;-71
2023/12/14 16:06:58;;;;;;;1.60;0.85;;;;;;;;;;5082359;28;20071;-73
2023/12/14 16:10:44;;;;;;;3.25;0.70;;;;;;;;;;5074043;28;20041;-71
2023/12/14 16:14:22;;;;;;;5.57;1.20;;;;;;;;;;5086471;28;20411;-68
2023/12/14 16:18:05;;;;;;;1.45;0.68;;;;;;;;;;5088877;28;20718;-71
2023/12/14 16:21:46;;;;;;;1.55;0.90;;;;;;;;;;5076481;28;20044;-72
2023/12/14 16:25:26;;;;;;;2.22;0.70;;;;;;;;;;5079959;28;20040;-73
2023/12/14 16:29:07;;;;;;;3.58;0.98;;;;;;;;;;5079896;28;20131;-71
2023/12/14 16:32:48;;;;;;;5.63;1.17;;;;;;;;;;5076638;28;20104;-74
2023/12/14 16:36:29;;;;;;;5.32;1.55;;;;;;;;;;5088685;28;20052;-73
2023/12/14 16:40:09;;;;;;;5.82;1.40;;;;;;;;;;5086679;28;20055;-74
2023/12/14 16:43:49;;;;;;;10.00;1.17;;;;;;;;;;5093238;27;20411;-73
2023/12/14 16:47:30;;;;;;;12.98;1.70;;;;;;;;;;5087894;28;20059;-70
2023/12/14 16:51:11;;;;;;;6.75;1.50;;;;;;;;;;5089454;28;20040;-70
2023/12/14 16:54:52;;;;;;;8.52;1.60;;;;;;;;;;5077130;28;20044;-70
2023/12/14 16:58:35;;;;;;;7.68;1.95;;;;;;;;;;5083584;28;20470;-72
2023/12/14 17:02:14;;;;;;;3.13;1.27;;;;;;;;;;5081210;28;20439;-70
2023/12/14 17:05:54;;;;;;;10.60;1.40;;;;;;;;;;5087618;27;20047;-70
2023/12/14 17:09:34;;;;;;;3.65;1.35;;;;;;;;;;5079575;28;20115;-70
2023/12/14 17:13:17;;;;;;;12.20;1.52;;;;;;;;;;5084760;28;20499;-71
2023/12/14 17:16:57;;;;;;;7.30;1.55;;;;;;;;;;5085900;27;20048;-69
2023/12/14 17:20:39;;;;;;;5.50;1.35;;;;;;;;;;5091283;28;20499;-70
2023/12/14 17:24:21;;;;;;;4.10;1.50;;;;;;;;;;5081207;28;20060;-68
2023/12/14 17:28:01;;;;;;;7.13;1.40;;;;;;;;;;5078758;28;20064;-68
2023/12/14 17:31:43;;;;;;;5.50;1.35;;;;;;;;;;5086465;28;20078;-67
2023/12/14 17:35:23;;;;;;;6.22;1.27;;;;;;;;;;5088605;28;20035;-67
2023/12/14 17:39:03;;;;;;;6.47;1.83;;;;;;;;;;5089427;28;20044;-67
2023/12/14 17:42:44;;;;;;;8.05;1.35;;;;;;;;;;5090430;28;20372;-68
2023/12/14 17:46:27;;;;;;;4.00;1.20;;;;;;;;;;5073455;28;20036;-68
2023/12/14 17:50:05;;;;;;;5.35;1.30;;;;;;;;;;5081380;28;20105;-71
2023/12/14 17:53:45;;;;;;;6.78;1.60;;;;;;;;;;5083301;28;20497;-69
2023/12/14 17:57:25;;;;;;;3.10;1.25;;;;;;;;;;5082539;28;20075;-68
2023/12/14 18:01:06;;;;;;;5.38;2.05;;;;;;;;;;5085002;28;20137;-71
2023/12/14 18:04:46;;;;;;;7.32;1.80;;;;;;;;;;5080436;28;20454;-69
2023/12/14 18:08:30;;;;;;;5.03;1.40;;;;;;;;;;5083928;28;20036;-70
2023/12/14 18:12:13;;;;;;;6.10;1.20;;;;;;;;;;5091479;28;20097;-71
2023/12/14 18:15:56;;;;;;;2.88;1.15;;;;;;;;;;5083625;28;20051;-70
2023/12/14 18:19:39;;;;;;;3.67;1.35;;;;;;;;;;5077338;28;20722;-73
2023/12/14 18:23:20;;;;;;;4.53;1.40;;;;;;;;;;5078306;28;20059;-70
2023/12/14 18:27:00;;;;;;;2.83;1.10;;;;;;;;;;5091084;28;20554;-69
2023/12/14 18:30:42;;;;;;;4.10;1.10;;;;;;;;;;5088351;28;20181;-70
2023/12/14 18:34:23;;;;;;;3.20;1.20;;;;;;;;;;5076122;28;20048;-68
2023/12/14 18:38:03;;;;;;;3.58;1.30;;;;;;;;;;5079816;28;20568;-67
2023/12/14 18:41:43;;;;;;;3.70;1.35;;;;;;;;;;5078323;28;20108;-69
2023/12/14 18:45:25;;;;;;;3.58;1.05;;;;;;;;;;5089672;28;20101;-72
2023/12/14 18:49:05;;;;;;;7.22;1.65;;;;;;;;;;5087013;28;20048;-71
2023/12/14 18:52:47;;;;;;;4.13;1.17;;;;;;;;;;5081784;28;20182;-71
2023/12/14 18:56:29;;;;;;;2.58;1.15;;;;;;;;;;5080426;28;20051;-71
2023/12/14 19:00:10;;;;;;;3.38;1.58;;;;;;;;;;5083933;28;20075;-70
2023/12/14 19:03:52;;;;;;;4.57;1.50;;;;;;;;;;5081712;28;20436;-69
2023/12/14 19:07:32;;;;;;;5.82;1.58;;;;;;;;;;5083966;28;20147;-70
2023/12/14 19:11:12;;;;;;;4.30;1.38;;;;;;;;;;5080514;28;20162;-70
2023/12/14 19:14:55;;;;;;;5.55;1.40;;;;;;;;;;5078201;28;20044;-66
2023/12/14 19:18:37;;;;;;;4.53;1.30;;;;;;;;;;5076326;28;20139;-68
2023/12/14 19:22:17;;;;;;;2.90;1.30;;;;;;;;;;5078669;28;20052;-70
2023/12/14 19:25:58;;;;;;;7.97;1.83;;;;;;;;;;5082210;28;20047;-69
2023/12/14 19:29:56;;;;;;;4.85;1.55;;;;;;;;;;5075739;28;20071;-68
2023/12/14 19:33:37;;;;;;;7.68;1.52;;;;;;;;;;5082273;28;20378;-67
2023/12/14 19:37:18;;;;;;;3.63;1.40;;;;;;;;;;5076912;28;20588;-69
2023/12/14 19:40:59;;;;;;;4.35;1.50;;;;;;;;;;5078252;28;20269;-66
2023/12/14 19:44:39;;;;;;;4.47;1.70;;;;;;;;;;5084522;28;20048;-70
2023/12/14 19:48:19;;;;;;;4.28;1.60;;;;;;;;;;5084712;28;20056;-69
2023/12/14 19:52:00;;;;;;;6.05;1.45;;;;;;;;;;5078061;28;20048;-67
2023/12/14 19:55:40;;;;;;;5.72;1.63;;;;;;;;;;5079415;28;20415;-67
2023/12/14 19:59:23;;;;;;;3.80;1.50;;;;;;;;;;5083978;28;20051;-70
2023/12/14 20:03:03;;;;;;;6.43;1.80;;;;;;;;;;5078282;28;20470;-70
2023/12/14 20:06:44;;;;;;;4.13;2.22;;;;;;;;;;5081801;28;20059;-70
2023/12/14 20:10:25;;;;;;;4.90;1.85;;;;;;;;;;5077623;28;20055;-71
2023/12/14 20:14:05;;;;;;;13.20;2.15;;;;;;;;;;5082113;28;20364;-72
2023/12/14 20:17:45;;;;;;;8.30;3.38;;;;;;;;;;5082418;28;20073;-70
2023/12/14 20:21:28;;;;;;;9.25;3.45;;;;;;;;;;5077464;28;20598;-70
2023/12/14 20:25:09;;;;;;;10.90;3.72;;;;;;;;;;5064468;28;20048;-68
2023/12/14 20:28:49;;;;;;;7.28;2.60;;;;;;;;;;5060736;28;20059;-70
2023/12/14 20:32:30;;;;;;;10.20;3.30;;;;;;;;;;5062055;28;20143;-71
2023/12/14 20:36:11;;;;;;;9.48;2.80;;;;;;;;;;5060293;28;20040;-69
2023/12/14 20:39:50;;;;;;;10.98;3.78;;;;;;;;;;5069645;28;20135;-70
2023/12/14 20:43:32;;;;;;;10.60;3.92;;;;;;;;;;5058224;28;20037;-69
2023/12/14 20:47:12;;;;;;;10.95;3.10;;;;;;;;;;5055150;28;20151;-70
2023/12/14 20:50:54;;;;;;;8.57;2.30;;;;;;;;;;5052509;28;20032;-70
2023/12/14 20:54:33;;;;;;;9.50;2.22;;;;;;;;;;5060975;28;20040;-69
2023/12/14 20:58:15;;;;;;;3.70;1.80;;;;;;;;;;5068392;28;20044;-71
2023/12/14 21:01:56;;;;;;;5.80;2.00;;;;;;;;;;5059460;28;20106;-71
2023/12/14 21:05:35;;;;;;;3.63;1.50;;;;;;;;;;5057468;28;20052;-72
2023/12/14 21:09:15;;;;;;;10.05;1.70;;;;;;;;;;5063173;28;20063;-69
2023/12/14 21:12:56;;;;;;;5.32;1.73;;;;;;;;;;5056248;28;20044;-71
2023/12/14 21:16:36;;;;;;;4.57;2.22;;;;;;;;;;5063670;28;20265;-70
2023/12/14 21:20:16;;;;;;;5.57;1.85;;;;;;;;;;5068881;28;20096;-70
2023/12/14 21:23:57;;;;;;;4.47;2.10;;;;;;;;;;5076347;28;20415;-70
2023/12/14 21:27:45;;;;;;;5.25;1.83;;;;;;;;;;5087542;28;20320;-74
2023/12/14 21:31:25;;;;;;;6.35;1.70;;;;;;;;;;5087122;28;20048;-73
2023/12/14 21:35:05;;;;;;;4.28;1.67;;;;;;;;;;5090014;28;20052;-72
2023/12/14 21:38:46;;;;;;;5.10;1.30;;;;;;;;;;5095463;28;20480;-72
2023/12/14 21:42:26;;;;;;;4.90;1.65;;;;;;;;;;5090620;28;20036;-72
2023/12/14 21:46:09;;;;;;;6.43;1.40;;;;;;;;;;5088749;28;20455;-71
2023/12/14 21:49:50;;;;;;;3.13;1.40;;;;;;;;;;5090165;27;20040;-73
2023/12/14 21:53:31;;;;;;;3.95;1.27;;;;;;;;;;5082018;28;20059;-72
2023/12/14 21:57:12;;;;;;;5.55;1.60;;;;;;;;;;5082796;28;20515;-71
2023/12/14 22:00:53;;;;;;;5.47;1.60;;;;;;;;;;5080457;28;20056;-72
2023/12/14 22:04:34;;;;;;;4.90;1.80;;;;;;;;;;5076022;28;20101;-71